createdAt,value
2022-12-25T00:01:24.532Z,5.90
2022-12-25T00:03:51.901Z,5.63
2022-12-25T00:06:19.276Z,5.70
2022-12-25T00:08:46.101Z,5.30
2022-12-25T00:11:15.058Z,5.70
2022-12-25T00:13:41.888Z,5.87
2022-12-25T00:16:11.395Z,6.77
2022-12-25T00:18:37.785Z,7.70
2022-12-25T00:21:06.775Z,6.70
2022-12-25T00:23:34.666Z,6.83
2022-12-25T00:26:05.690Z,6.93
2022-12-25T00:28:32.069Z,8.30
2022-12-25T00:30:58.483Z,6.40
2022-12-25T00:33:26.274Z,7.70
2022-12-25T00:36:00.253Z,8.80
2022-12-25T00:38:27.796Z,7.63
2022-12-25T00:40:54.920Z,7.50
2022-12-25T00:43:21.386Z,9.03
2022-12-25T00:46:14.313Z,7.70
2022-12-25T00:48:41.482Z,8.10
2022-12-25T00:51:11.083Z,6.60
2022-12-25T00:53:37.512Z,6.50
2022-12-25T00:56:06.647Z,7.43
2022-12-25T00:58:34.402Z,7.37
2022-12-25T01:01:01.199Z,7.73
2022-12-25T01:03:28.350Z,7.60
2022-12-25T01:05:57.346Z,6.53
2022-12-25T01:08:24.098Z,8.83
2022-12-25T01:10:57.913Z,7.40
2022-12-25T01:13:24.564Z,9.60
2022-12-25T01:15:52.784Z,7.90
2022-12-25T01:18:20.433Z,8.07
2022-12-25T01:20:47.090Z,8.00
2022-12-25T01:23:13.759Z,9.33
2022-12-25T01:25:40.600Z,8.60
2022-12-25T01:28:07.050Z,8.50
2022-12-25T01:30:33.596Z,8.17
2022-12-25T01:33:00.026Z,7.80
2022-12-25T01:35:26.662Z,8.80
2022-12-25T01:37:53.457Z,9.50
2022-12-25T01:40:19.881Z,9.27
2022-12-25T01:42:46.237Z,8.67
2022-12-25T01:45:31.689Z,10.13
2022-12-25T01:47:58.429Z,8.90
2022-12-25T01:50:25.013Z,10.10
2022-12-25T01:52:51.830Z,10.07
2022-12-25T01:55:18.493Z,9.53
2022-12-25T01:57:45.461Z,9.83
2022-12-25T02:00:13.427Z,9.03
2022-12-25T02:02:41.237Z,11.20
2022-12-25T02:05:27.652Z,9.80
2022-12-25T02:07:55.429Z,9.97
2022-12-25T02:10:23.248Z,9.60
2022-12-25T02:12:50.072Z,10.50
2022-12-25T02:15:22.175Z,10.20
2022-12-25T02:17:55.408Z,10.63
2022-12-25T02:20:33.179Z,12.63
2022-12-25T02:23:30.261Z,10.40
2022-12-25T02:26:33.295Z,9.80
2022-12-25T02:29:05.073Z,10.47
2022-12-25T02:32:00.397Z,10.77
2022-12-25T02:34:36.082Z,9.20
2022-12-25T02:37:12.682Z,11.33
2022-12-25T02:40:03.532Z,10.97
2022-12-25T02:43:05.293Z,10.30
2022-12-25T02:46:14.324Z,9.97
2022-12-25T02:49:03.875Z,10.50
2022-12-25T02:51:54.304Z,10.67
2022-12-25T02:54:45.941Z,9.50
2022-12-25T02:57:35.341Z,10.00
2022-12-25T03:00:21.208Z,11.37
2022-12-25T03:03:07.677Z,12.10
2022-12-25T03:05:57.775Z,13.07
2022-12-25T03:08:30.203Z,11.90
2022-12-25T03:11:25.358Z,10.73
2022-12-25T03:13:55.605Z,10.57
2022-12-25T03:16:54.823Z,9.40
2022-12-25T03:19:43.200Z,11.40
2022-12-25T03:22:34.608Z,12.70
2022-12-25T03:25:19.467Z,10.50
2022-12-25T03:27:48.970Z,12.20
2022-12-25T03:30:34.298Z,11.17
2022-12-25T03:33:43.873Z,11.03
2022-12-25T03:36:28.582Z,11.70
2022-12-25T03:39:39.408Z,11.73
2022-12-25T03:42:34.288Z,12.20
2022-12-25T03:45:26.572Z,11.20
2022-12-25T03:48:13.443Z,11.93
2022-12-25T03:51:13.311Z,12.50
2022-12-25T03:54:03.134Z,10.90
2022-12-25T03:56:50.395Z,12.20
2022-12-25T03:59:39.827Z,11.70
2022-12-25T04:02:25.219Z,11.80
2022-12-25T04:05:10.740Z,12.50
2022-12-25T04:07:57.435Z,10.90
2022-12-25T04:10:43.069Z,13.70
2022-12-25T04:13:27.770Z,12.50
2022-12-25T04:16:13.398Z,12.60
2022-12-25T04:18:58.183Z,13.20
2022-12-25T04:21:43.996Z,12.00
2022-12-25T04:24:29.882Z,12.73
2022-12-25T04:27:15.313Z,11.90
2022-12-25T04:30:00.378Z,11.27
2022-12-25T04:32:45.590Z,12.50
2022-12-25T04:35:31.250Z,11.23
2022-12-25T04:37:57.592Z,13.50
2022-12-25T04:40:23.984Z,12.67
2022-12-25T04:42:51.698Z,12.63
2022-12-25T04:45:18.341Z,12.10
2022-12-25T04:47:44.694Z,12.40
2022-12-25T04:50:11.367Z,12.03
2022-12-25T04:52:39.573Z,12.43
2022-12-25T04:55:07.281Z,13.60
2022-12-25T04:57:34.438Z,11.03
2022-12-25T05:00:00.822Z,12.10
2022-12-25T05:02:27.550Z,11.13
2022-12-25T05:04:53.968Z,11.90
2022-12-25T05:07:20.547Z,11.70
2022-12-25T05:09:46.881Z,11.57
2022-12-25T05:12:13.609Z,12.00
2022-12-25T05:14:40.078Z,12.50
2022-12-25T05:17:07.954Z,10.70
2022-12-25T05:19:34.699Z,10.30
2022-12-25T05:22:01.220Z,11.10
2022-12-25T05:24:28.092Z,10.97
2022-12-25T05:26:54.768Z,10.40
2022-12-25T05:29:21.119Z,10.33
2022-12-25T05:31:47.689Z,11.93
2022-12-25T05:34:14.075Z,9.63
2022-12-25T05:36:40.463Z,10.30
2022-12-25T05:39:06.812Z,10.10
2022-12-25T05:41:34.674Z,11.00
2022-12-25T05:44:01.536Z,9.83
2022-12-25T05:46:27.975Z,9.60
2022-12-25T05:48:54.357Z,9.37
2022-12-25T05:51:20.880Z,10.03
2022-12-25T05:53:47.307Z,10.30
2022-12-25T05:56:13.715Z,10.43
2022-12-25T05:58:40.887Z,9.30
2022-12-25T06:01:25.292Z,9.23
2022-12-25T06:03:52.241Z,9.97
2022-12-25T06:06:18.720Z,9.30
2022-12-25T06:08:45.378Z,9.00
2022-12-25T06:11:14.584Z,9.97
2022-12-25T06:13:41.076Z,8.70
2022-12-25T06:16:10.545Z,9.90
2022-12-25T06:18:43.998Z,8.53
2022-12-25T06:21:12.459Z,8.93
2022-12-25T06:23:39.528Z,9.70
2022-12-25T06:26:08.333Z,9.47
2022-12-25T06:28:34.942Z,9.87
2022-12-25T06:31:09.394Z,9.00
2022-12-25T06:33:36.429Z,7.87
2022-12-25T06:36:17.376Z,9.67
2022-12-25T06:38:43.950Z,9.30
2022-12-25T06:41:30.339Z,9.37
2022-12-25T06:43:59.225Z,9.70
2022-12-25T06:46:28.765Z,9.23
2022-12-25T06:48:55.461Z,9.17
2022-12-25T06:51:24.461Z,8.33
2022-12-25T06:53:51.918Z,9.03
2022-12-25T06:56:24.291Z,9.83
2022-12-25T06:58:53.794Z,8.93
2022-12-25T07:01:24.394Z,9.80
2022-12-25T07:03:56.164Z,9.00
2022-12-25T07:06:22.910Z,8.97
2022-12-25T07:08:49.464Z,8.93
2022-12-25T07:11:16.251Z,9.30
2022-12-25T07:13:42.604Z,8.87
2022-12-25T07:16:11.543Z,8.50
2022-12-25T07:18:38.195Z,10.57
2022-12-25T07:21:18.985Z,8.97
2022-12-25T07:23:46.966Z,8.13
2022-12-25T07:26:14.297Z,10.40
2022-12-25T07:28:40.834Z,8.97
2022-12-25T07:31:10.834Z,8.60
2022-12-25T07:33:37.574Z,9.03
2022-12-25T07:36:05.595Z,9.40
2022-12-25T07:38:32.211Z,9.57
2022-12-25T07:40:58.565Z,8.13
2022-12-25T07:43:25.380Z,7.90
2022-12-25T07:45:56.941Z,8.40
2022-12-25T07:48:23.470Z,8.20
2022-12-25T07:50:55.899Z,8.83
2022-12-25T07:53:22.269Z,8.83
2022-12-25T07:55:48.620Z,8.93
2022-12-25T07:58:18.578Z,8.80
2022-12-25T08:00:49.442Z,8.53
2022-12-25T08:03:16.912Z,8.67
2022-12-25T08:05:43.425Z,7.93
2022-12-25T08:08:09.810Z,8.67
2022-12-25T08:10:36.316Z,8.67
2022-12-25T08:13:02.791Z,8.07
2022-12-25T08:15:30.455Z,8.13
2022-12-25T08:17:56.967Z,8.10
2022-12-25T08:20:23.303Z,8.97
2022-12-25T08:22:49.676Z,8.27
2022-12-25T08:25:16.079Z,8.17
2022-12-25T08:27:42.435Z,7.83
2022-12-25T08:30:09.235Z,8.57
2022-12-25T08:32:35.753Z,8.43
2022-12-25T08:35:02.103Z,7.90
2022-12-25T08:37:30.360Z,8.40
2022-12-25T08:39:56.686Z,8.27
2022-12-25T08:42:23.051Z,7.33
2022-12-25T08:44:49.380Z,7.50
2022-12-25T08:47:15.948Z,7.50
2022-12-25T08:49:42.280Z,7.83
2022-12-25T08:52:08.860Z,8.83
2022-12-25T08:54:36.372Z,6.93
2022-12-25T08:57:03.946Z,7.40
2022-12-25T08:59:30.367Z,8.10
2022-12-25T09:01:56.918Z,8.03
2022-12-25T09:04:23.344Z,9.07
2022-12-25T09:06:51.190Z,6.47
2022-12-25T09:09:17.562Z,8.00
2022-12-25T09:11:43.939Z,7.87
2022-12-25T09:14:10.309Z,7.50
2022-12-25T09:16:36.869Z,7.53
2022-12-25T09:19:03.319Z,7.80
2022-12-25T09:21:32.688Z,8.27
2022-12-25T09:23:59.027Z,7.00
2022-12-25T09:26:27.298Z,7.97
2022-12-25T09:28:53.683Z,8.27
2022-12-25T09:31:22.157Z,7.70
2022-12-25T09:33:49.882Z,8.37
2022-12-25T09:36:16.559Z,7.10
2022-12-25T09:38:42.969Z,7.43
2022-12-25T09:41:31.532Z,6.90
2022-12-25T09:44:14.988Z,7.60
2022-12-25T09:46:47.244Z,7.30
2022-12-25T09:49:35.447Z,8.10
2022-12-25T09:52:08.335Z,8.60
2022-12-25T09:54:47.495Z,7.90
2022-12-25T09:57:14.883Z,7.57
2022-12-25T09:59:47.361Z,9.93
2022-12-25T10:03:00.850Z,8.10
2022-12-25T10:05:39.478Z,8.03
2022-12-25T10:08:25.991Z,9.00
2022-12-25T10:11:27.915Z,8.67
2022-12-25T10:14:15.330Z,9.40
2022-12-25T10:16:58.391Z,9.07
2022-12-25T10:19:40.573Z,9.60
2022-12-25T10:22:19.564Z,8.63
2022-12-25T10:24:50.499Z,9.40
2022-12-25T10:27:30.203Z,8.00
2022-12-25T10:29:56.633Z,8.07
2022-12-25T10:32:23.212Z,8.23
2022-12-25T10:34:50.064Z,9.80
2022-12-25T10:37:16.739Z,8.37
2022-12-25T10:39:46.638Z,7.77
2022-12-25T10:42:22.518Z,8.37
2022-12-25T10:45:04.520Z,8.93
2022-12-25T10:47:34.026Z,8.47
2022-12-25T10:50:07.556Z,8.23
2022-12-25T10:52:34.139Z,7.60
2022-12-25T10:55:11.551Z,7.80
2022-12-25T10:57:45.530Z,7.87
2022-12-25T11:00:38.737Z,8.70
2022-12-25T11:03:05.195Z,7.23
2022-12-25T11:05:34.176Z,8.37
2022-12-25T11:08:02.389Z,8.53
2022-12-25T11:10:31.765Z,9.80
2022-12-25T11:12:59.931Z,12.83
2022-12-25T11:15:37.507Z,13.73
2022-12-25T11:18:17.497Z,15.87
2022-12-25T11:21:14.542Z,11.00
2022-12-25T11:23:45.682Z,9.03
2022-12-25T11:26:12.370Z,8.53
2022-12-25T11:28:41.008Z,7.90
2022-12-25T11:31:19.784Z,7.67
2022-12-25T11:33:53.759Z,8.60
2022-12-25T11:36:28.597Z,7.43
2022-12-25T11:38:55.470Z,8.10
2022-12-25T11:41:30.430Z,7.20
2022-12-25T11:43:59.401Z,8.77
2022-12-25T11:46:40.208Z,8.07
2022-12-25T11:49:12.062Z,8.80
2022-12-25T11:51:41.863Z,7.83
2022-12-25T11:54:20.460Z,8.47
2022-12-25T11:56:46.973Z,9.37
2022-12-25T11:59:24.019Z,7.80
2022-12-25T12:02:24.084Z,7.70
2022-12-25T12:05:02.257Z,6.97
2022-12-25T12:07:31.970Z,7.47
2022-12-25T12:10:09.417Z,8.43
2022-12-25T12:12:54.430Z,7.43
2022-12-25T12:15:40.996Z,8.50
2022-12-25T12:18:25.541Z,7.23
2022-12-25T12:21:17.797Z,7.10
2022-12-25T12:24:09.508Z,7.33
2022-12-25T12:26:40.850Z,6.77
2022-12-25T12:29:20.953Z,7.10
2022-12-25T12:31:50.438Z,7.80
2022-12-25T12:34:42.574Z,7.80
2022-12-25T12:37:38.321Z,8.03
2022-12-25T12:40:08.626Z,7.10
2022-12-25T12:42:45.201Z,7.27
2022-12-25T12:45:25.073Z,7.30
2022-12-25T12:47:53.036Z,7.70
2022-12-25T12:50:39.925Z,7.30
2022-12-25T12:53:21.592Z,8.73
2022-12-25T12:55:48.355Z,6.70
2022-12-25T12:58:33.639Z,7.10
2022-12-25T13:01:27.800Z,7.93
2022-12-25T13:04:10.341Z,7.83
2022-12-25T13:06:45.083Z,7.30
2022-12-25T13:09:34.632Z,7.23
2022-12-25T13:12:06.880Z,6.70
2022-12-25T13:14:34.116Z,7.40
2022-12-25T13:17:00.781Z,6.47
2022-12-25T13:19:29.141Z,8.67
2022-12-25T13:22:03.680Z,7.40
2022-12-25T13:24:35.269Z,6.90
2022-12-25T13:27:15.916Z,7.40
2022-12-25T13:29:42.583Z,7.20
2022-12-25T13:32:20.775Z,6.43
2022-12-25T13:34:48.111Z,6.07
2022-12-25T13:37:16.770Z,6.83
2022-12-25T13:39:51.839Z,5.50
2022-12-25T13:42:22.461Z,5.60
2022-12-25T13:44:52.993Z,6.43
2022-12-25T13:47:24.267Z,5.40
2022-12-25T13:49:52.782Z,5.80
2022-12-25T13:52:23.171Z,5.80
2022-12-25T13:55:14.416Z,6.50
2022-12-25T13:57:52.725Z,6.33
2022-12-25T14:00:39.409Z,5.67
2022-12-25T14:03:07.657Z,7.00
2022-12-25T14:05:42.312Z,6.10
2022-12-25T14:08:15.875Z,6.17
2022-12-25T14:10:48.207Z,6.40
2022-12-25T14:13:15.762Z,7.00
2022-12-25T14:15:44.858Z,5.93
2022-12-25T14:18:15.964Z,6.53
2022-12-25T14:21:07.886Z,6.90
2022-12-25T14:23:49.388Z,7.13
2022-12-25T14:26:22.052Z,7.07
2022-12-25T14:28:50.318Z,7.20
2022-12-25T14:31:17.063Z,7.30
2022-12-25T14:33:43.847Z,7.37
2022-12-25T14:36:13.180Z,7.67
2022-12-25T14:38:42.488Z,7.03
2022-12-25T14:41:34.482Z,8.73
2022-12-25T14:44:04.312Z,7.20
2022-12-25T14:46:32.796Z,7.30
2022-12-25T14:49:20.898Z,8.63
2022-12-25T14:51:47.301Z,7.80
2022-12-25T14:54:22.460Z,7.80
2022-12-25T14:56:51.544Z,8.47
2022-12-25T14:59:20.757Z,8.93
2022-12-25T15:01:54.268Z,10.00
2022-12-25T15:04:22.510Z,8.53
2022-12-25T15:06:57.233Z,7.20
2022-12-25T15:09:24.062Z,8.23
2022-12-25T15:11:52.057Z,9.33
2022-12-25T15:14:18.990Z,8.80
2022-12-25T15:16:47.960Z,8.70
2022-12-25T15:19:26.528Z,8.30
2022-12-25T15:21:55.615Z,10.23
2022-12-25T15:24:22.107Z,8.90
2022-12-25T15:26:48.550Z,9.20
2022-12-25T15:29:14.960Z,10.90
2022-12-25T15:31:42.039Z,9.90
2022-12-25T15:34:20.874Z,10.60
2022-12-25T15:36:48.021Z,10.07
2022-12-25T15:39:14.600Z,10.30
2022-12-25T15:41:59.933Z,9.47
2022-12-25T15:44:26.482Z,9.83
2022-12-25T15:46:52.856Z,10.20
2022-12-25T15:49:19.408Z,10.20
2022-12-25T15:51:46.422Z,11.10
2022-12-25T15:54:13.021Z,9.63
2022-12-25T15:56:45.453Z,10.37
2022-12-25T15:59:13.436Z,10.67
2022-12-25T16:01:43.352Z,10.73
2022-12-25T16:04:09.900Z,9.87
2022-12-25T16:06:36.228Z,9.90
2022-12-25T16:09:02.575Z,10.43
2022-12-25T16:11:28.927Z,9.70
2022-12-25T16:13:55.496Z,9.63
2022-12-25T16:16:22.669Z,9.73
2022-12-25T16:18:49.166Z,10.43
2022-12-25T16:21:19.052Z,9.73
2022-12-25T16:23:45.661Z,9.23
2022-12-25T16:26:12.232Z,10.00
2022-12-25T16:28:38.648Z,9.63
2022-12-25T16:31:05.184Z,10.07
2022-12-25T16:33:31.813Z,11.70
2022-12-25T16:35:58.197Z,9.70
2022-12-25T16:38:24.745Z,10.50
2022-12-25T16:40:59.402Z,10.00
2022-12-25T16:43:26.238Z,11.80
2022-12-25T16:45:52.670Z,9.90
2022-12-25T16:48:19.333Z,9.93
2022-12-25T16:50:45.902Z,11.07
2022-12-25T16:53:15.294Z,9.67
2022-12-25T16:55:41.645Z,8.80
2022-12-25T16:58:08.080Z,9.40
2022-12-25T17:00:34.429Z,9.03
2022-12-25T17:03:01.503Z,9.60
2022-12-25T17:05:28.149Z,8.60
2022-12-25T17:07:54.519Z,9.17
2022-12-25T17:10:21.388Z,9.07
2022-12-25T17:12:48.028Z,9.57
2022-12-25T17:15:14.511Z,9.37
2022-12-25T17:17:41.647Z,10.30
2022-12-25T17:20:08.411Z,10.63
2022-12-25T17:22:34.988Z,10.00
2022-12-25T17:25:01.343Z,11.03
2022-12-25T17:27:27.733Z,11.10
2022-12-25T17:29:54.066Z,10.30
2022-12-25T17:32:20.552Z,10.63
2022-12-25T17:34:46.988Z,15.07
2022-12-25T17:37:13.389Z,12.83
2022-12-25T17:39:39.747Z,14.50
2022-12-25T17:42:06.228Z,11.10
2022-12-25T17:44:32.576Z,11.03
2022-12-25T17:46:59.059Z,9.77
2022-12-25T17:49:25.721Z,9.17
2022-12-25T17:51:53.720Z,10.00
2022-12-25T17:54:20.238Z,10.30
2022-12-25T17:56:46.662Z,11.90
2022-12-25T17:59:18.405Z,12.73
2022-12-25T18:01:46.828Z,14.13
2022-12-25T18:04:13.438Z,10.00
2022-12-25T18:06:39.844Z,13.60
2022-12-25T18:09:07.329Z,14.50
2022-12-25T18:11:34.048Z,12.77
2022-12-25T18:14:05.369Z,11.50
2022-12-25T18:16:34.432Z,12.30
2022-12-25T18:19:01.206Z,11.37
2022-12-25T18:21:28.304Z,10.10
2022-12-25T18:23:54.818Z,9.20
2022-12-25T18:26:21.709Z,10.47
2022-12-25T18:28:49.573Z,10.30
2022-12-25T18:31:20.348Z,9.97
2022-12-25T18:33:48.174Z,9.83
2022-12-25T18:36:19.928Z,10.90
2022-12-25T18:38:47.461Z,13.10
2022-12-25T18:41:14.071Z,10.20
2022-12-25T18:43:53.736Z,9.90
2022-12-25T18:46:26.683Z,8.13
2022-12-25T18:48:56.086Z,8.90
2022-12-25T18:51:23.235Z,8.77
2022-12-25T18:53:49.621Z,9.37
2022-12-25T18:56:17.827Z,11.40
2022-12-25T18:58:45.474Z,10.67
2022-12-25T19:01:23.656Z,13.20
2022-12-25T19:03:51.706Z,12.10
2022-12-25T19:06:20.995Z,13.33
2022-12-25T19:08:48.123Z,12.33
2022-12-25T19:11:14.966Z,11.63
2022-12-25T19:13:41.427Z,9.87
2022-12-25T19:16:08.232Z,9.80
2022-12-25T19:18:34.793Z,10.07
2022-12-25T19:21:05.689Z,10.37
2022-12-25T19:23:32.588Z,10.30
2022-12-25T19:25:59.191Z,12.03
2022-12-25T19:28:25.762Z,14.00
2022-12-25T19:30:54.024Z,12.90
2022-12-25T19:33:22.080Z,12.60
2022-12-25T19:35:48.947Z,13.40
2022-12-25T19:38:15.745Z,12.50
2022-12-25T19:40:59.898Z,12.63
2022-12-25T19:43:31.786Z,15.20
2022-12-25T19:45:58.241Z,13.20
2022-12-25T19:48:25.006Z,14.63
2022-12-25T19:50:51.842Z,11.80
2022-12-25T19:53:18.524Z,13.93
2022-12-25T19:55:44.918Z,16.00
2022-12-25T19:58:11.827Z,12.80
2022-12-25T20:00:38.274Z,15.10
2022-12-25T20:03:04.844Z,11.77
2022-12-25T20:05:31.338Z,11.47
2022-12-25T20:07:57.808Z,11.63
2022-12-25T20:10:24.272Z,14.57
2022-12-25T20:12:50.869Z,18.03
2022-12-25T20:15:17.337Z,15.03
2022-12-25T20:17:43.890Z,14.83
2022-12-25T20:20:10.737Z,13.43
2022-12-25T20:22:37.174Z,12.53
2022-12-25T20:25:04.296Z,13.73
2022-12-25T20:27:30.818Z,11.23
2022-12-25T20:29:57.211Z,13.33
2022-12-25T20:32:23.825Z,12.67
2022-12-25T20:34:50.313Z,15.17
2022-12-25T20:37:16.813Z,15.80
2022-12-25T20:39:43.407Z,14.50
2022-12-25T20:42:10.238Z,15.37
2022-12-25T20:44:36.948Z,13.27
2022-12-25T20:47:03.808Z,11.57
2022-12-25T20:49:32.400Z,9.20
2022-12-25T20:52:04.872Z,8.27
2022-12-25T20:54:32.308Z,9.13
2022-12-25T20:56:58.868Z,8.33
2022-12-25T20:59:25.320Z,8.80
2022-12-25T21:01:54.115Z,8.63
2022-12-25T21:04:20.665Z,7.10
2022-12-25T21:06:47.156Z,7.83
2022-12-25T21:09:13.655Z,8.07
2022-12-25T21:11:40.144Z,8.07
2022-12-25T21:14:06.538Z,7.20
2022-12-25T21:16:33.329Z,7.60
2022-12-25T21:18:59.733Z,7.63
2022-12-25T21:21:26.174Z,7.40
2022-12-25T21:23:55.693Z,6.90
2022-12-25T21:26:27.422Z,8.13
2022-12-25T21:28:57.344Z,7.67
2022-12-25T21:31:24.502Z,8.47
2022-12-25T21:33:57.580Z,8.43
2022-12-25T21:36:30.004Z,8.03
2022-12-25T21:39:02.215Z,7.80
2022-12-25T21:41:30.713Z,8.00
2022-12-25T21:43:57.169Z,7.47
2022-12-25T21:46:24.415Z,7.30
2022-12-25T21:48:51.139Z,7.70
2022-12-25T21:51:42.432Z,7.90
2022-12-25T21:54:09.499Z,7.97
2022-12-25T21:56:43.491Z,8.03
2022-12-25T21:59:13.464Z,7.63
2022-12-25T22:01:39.973Z,9.07
2022-12-25T22:04:08.401Z,9.07
2022-12-25T22:06:58.411Z,9.20
2022-12-25T22:09:25.045Z,11.00
2022-12-25T22:12:10.214Z,12.70
2022-12-25T22:14:54.747Z,10.90
2022-12-25T22:17:46.438Z,10.80
2022-12-25T22:20:19.347Z,11.00
2022-12-25T22:22:46.299Z,10.60
2022-12-25T22:25:13.595Z,12.07
2022-12-25T22:27:41.680Z,12.73
2022-12-25T22:30:11.507Z,12.67
2022-12-25T22:32:38.329Z,11.63
2022-12-25T22:35:05.465Z,11.63
2022-12-25T22:37:32.376Z,13.10
2022-12-25T22:40:00.638Z,11.23
2022-12-25T22:42:27.268Z,12.30
2022-12-25T22:44:53.608Z,11.60
2022-12-25T22:47:19.993Z,11.33
2022-12-25T22:49:46.334Z,13.63
2022-12-25T22:52:12.843Z,11.20
2022-12-25T22:54:39.336Z,11.70
2022-12-25T22:57:06.146Z,13.73
2022-12-25T22:59:32.907Z,10.40
2022-12-25T23:02:00.443Z,10.90
2022-12-25T23:04:27.995Z,10.60
2022-12-25T23:06:54.605Z,10.50
2022-12-25T23:09:29.261Z,8.40
2022-12-25T23:11:57.006Z,8.63
2022-12-25T23:14:39.706Z,9.50
2022-12-25T23:17:30.262Z,10.17
2022-12-25T23:20:16.521Z,7.83
2022-12-25T23:23:01.517Z,9.33
2022-12-25T23:25:47.750Z,8.77
2022-12-25T23:28:14.430Z,8.40
2022-12-25T23:30:40.859Z,9.20
2022-12-25T23:33:07.421Z,7.93
2022-12-25T23:35:33.781Z,8.43
2022-12-25T23:38:00.191Z,7.30
2022-12-25T23:40:26.579Z,8.60
2022-12-25T23:42:53.073Z,7.50
2022-12-25T23:45:19.442Z,8.10
2022-12-25T23:47:45.907Z,8.30
2022-12-25T23:50:12.271Z,8.17
2022-12-25T23:52:38.797Z,8.50
2022-12-25T23:55:05.715Z,8.50
2022-12-25T23:57:32.126Z,8.20
2022-12-25T23:59:58.680Z,7.70
